sensor_id;sensor_type;location;lat;lon;timestamp;P1;durP1;ratioP1;P2;durP2;ratioP2
11344;SDS011;5727;42.600;23.028;2022-11-13T00:00:32;13.20;;;10.93;;
11344;SDS011;5727;42.600;23.028;2022-11-13T00:03:00;11.17;;;9.67;;
11344;SDS011;5727;42.600;23.028;2022-11-13T00:05:27;12.73;;;9.80;;
11344;SDS011;5727;42.600;23.028;2022-11-13T00:07:53;14.33;;;10.87;;
11344;SDS011;5727;42.600;23.028;2022-11-13T00:10:20;15.57;;;11.00;;
11344;SDS011;5727;42.600;23.028;2022-11-13T00:12:47;13.63;;;10.80;;
11344;SDS011;5727;42.600;23.028;2022-11-13T00:15:14;14.73;;;10.63;;
11344;SDS011;5727;42.600;23.028;2022-11-13T00:17:41;13.93;;;10.70;;
11344;SDS011;5727;42.600;23.028;2022-11-13T00:20:09;13.77;;;11.10;;
11344;SDS011;5727;42.600;23.028;2022-11-13T00:22:36;15.73;;;11.10;;
11344;SDS011;5727;42.600;23.028;2022-11-13T00:25:02;14.50;;;11.23;;
11344;SDS011;5727;42.600;23.028;2022-11-13T00:27:30;16.10;;;12.13;;
11344;SDS011;5727;42.600;23.028;2022-11-13T00:29:57;14.30;;;11.70;;
11344;SDS011;5727;42.600;23.028;2022-11-13T00:32:23;13.40;;;9.73;;
11344;SDS011;5727;42.600;23.028;2022-11-13T00:34:50;13.43;;;10.93;;
11344;SDS011;5727;42.600;23.028;2022-11-13T00:37:19;14.90;;;11.50;;
11344;SDS011;5727;42.600;23.028;2022-11-13T00:39:45;16.27;;;11.63;;
11344;SDS011;5727;42.600;23.028;2022-11-13T00:42:12;16.17;;;11.40;;
11344;SDS011;5727;42.600;23.028;2022-11-13T00:44:39;18.07;;;11.67;;
11344;SDS011;5727;42.600;23.028;2022-11-13T00:47:06;13.87;;;11.43;;
11344;SDS011;5727;42.600;23.028;2022-11-13T00:49:32;13.10;;;10.90;;
11344;SDS011;5727;42.600;23.028;2022-11-13T00:51:59;13.47;;;10.00;;
11344;SDS011;5727;42.600;23.028;2022-11-13T00:54:28;16.07;;;11.27;;
11344;SDS011;5727;42.600;23.028;2022-11-13T00:56:55;13.30;;;11.03;;
11344;SDS011;5727;42.600;23.028;2022-11-13T00:59:21;13.97;;;10.37;;
11344;SDS011;5727;42.600;23.028;2022-11-13T01:01:48;15.07;;;10.93;;
11344;SDS011;5727;42.600;23.028;2022-11-13T01:04:15;14.17;;;10.67;;
11344;SDS011;5727;42.600;23.028;2022-11-13T01:06:43;12.20;;;10.03;;
11344;SDS011;5727;42.600;23.028;2022-11-13T01:09:10;13.33;;;11.10;;
11344;SDS011;5727;42.600;23.028;2022-11-13T01:11:38;13.07;;;10.00;;
11344;SDS011;5727;42.600;23.028;2022-11-13T01:14:04;17.07;;;10.80;;
11344;SDS011;5727;42.600;23.028;2022-11-13T01:16:31;16.23;;;11.87;;
11344;SDS011;5727;42.600;23.028;2022-11-13T01:18:58;12.93;;;9.97;;
11344;SDS011;5727;42.600;23.028;2022-11-13T01:21:25;12.03;;;9.73;;
11344;SDS011;5727;42.600;23.028;2022-11-13T01:23:53;12.30;;;8.77;;
11344;SDS011;5727;42.600;23.028;2022-11-13T01:26:20;11.23;;;9.27;;
11344;SDS011;5727;42.600;23.028;2022-11-13T01:28:50;11.60;;;9.10;;
11344;SDS011;5727;42.600;23.028;2022-11-13T01:31:18;12.53;;;10.03;;
11344;SDS011;5727;42.600;23.028;2022-11-13T01:33:46;14.27;;;10.70;;
11344;SDS011;5727;42.600;23.028;2022-11-13T01:36:15;12.93;;;9.67;;
11344;SDS011;5727;42.600;23.028;2022-11-13T01:38:43;11.37;;;8.83;;
11344;SDS011;5727;42.600;23.028;2022-11-13T01:41:12;11.80;;;9.03;;
11344;SDS011;5727;42.600;23.028;2022-11-13T01:43:42;13.43;;;9.37;;
11344;SDS011;5727;42.600;23.028;2022-11-13T01:46:15;10.43;;;9.13;;
11344;SDS011;5727;42.600;23.028;2022-11-13T01:48:44;12.43;;;9.17;;
11344;SDS011;5727;42.600;23.028;2022-11-13T01:51:16;12.20;;;9.50;;
11344;SDS011;5727;42.600;23.028;2022-11-13T01:53:48;12.27;;;9.70;;
11344;SDS011;5727;42.600;23.028;2022-11-13T01:56:16;11.80;;;9.57;;
11344;SDS011;5727;42.600;23.028;2022-11-13T01:58:45;11.73;;;9.27;;
11344;SDS011;5727;42.600;23.028;2022-11-13T02:01:15;11.30;;;10.20;;
11344;SDS011;5727;42.600;23.028;2022-11-13T02:03:42;12.47;;;9.93;;
11344;SDS011;5727;42.600;23.028;2022-11-13T02:06:09;14.33;;;10.37;;
11344;SDS011;5727;42.600;23.028;2022-11-13T02:08:36;12.63;;;9.93;;
11344;SDS011;5727;42.600;23.028;2022-11-13T02:11:03;12.43;;;10.00;;
11344;SDS011;5727;42.600;23.028;2022-11-13T02:13:30;12.23;;;9.97;;
11344;SDS011;5727;42.600;23.028;2022-11-13T02:15:57;16.97;;;11.60;;
11344;SDS011;5727;42.600;23.028;2022-11-13T02:18:26;14.27;;;11.17;;
11344;SDS011;5727;42.600;23.028;2022-11-13T02:20:59;12.87;;;11.03;;
11344;SDS011;5727;42.600;23.028;2022-11-13T02:23:34;13.67;;;11.37;;
11344;SDS011;5727;42.600;23.028;2022-11-13T02:26:10;13.77;;;11.40;;
11344;SDS011;5727;42.600;23.028;2022-11-13T02:28:37;13.47;;;10.80;;
11344;SDS011;5727;42.600;23.028;2022-11-13T02:31:05;13.50;;;11.20;;
11344;SDS011;5727;42.600;23.028;2022-11-13T02:33:33;12.30;;;10.40;;
11344;SDS011;5727;42.600;23.028;2022-11-13T02:35:59;14.30;;;10.07;;
11344;SDS011;5727;42.600;23.028;2022-11-13T02:38:26;12.83;;;10.87;;
11344;SDS011;5727;42.600;23.028;2022-11-13T02:40:53;16.03;;;12.70;;
11344;SDS011;5727;42.600;23.028;2022-11-13T02:43:21;16.97;;;13.60;;
11344;SDS011;5727;42.600;23.028;2022-11-13T02:45:48;16.00;;;12.17;;
11344;SDS011;5727;42.600;23.028;2022-11-13T02:48:14;18.87;;;13.70;;
11344;SDS011;5727;42.600;23.028;2022-11-13T02:50:41;21.03;;;14.47;;
11344;SDS011;5727;42.600;23.028;2022-11-13T02:53:08;19.07;;;13.73;;
11344;SDS011;5727;42.600;23.028;2022-11-13T02:55:35;20.90;;;15.17;;
11344;SDS011;5727;42.600;23.028;2022-11-13T02:58:02;25.53;;;16.00;;
11344;SDS011;5727;42.600;23.028;2022-11-13T03:00:30;23.30;;;14.73;;
11344;SDS011;5727;42.600;23.028;2022-11-13T03:02:57;18.33;;;14.97;;
11344;SDS011;5727;42.600;23.028;2022-11-13T03:05:24;26.03;;;16.20;;
11344;SDS011;5727;42.600;23.028;2022-11-13T03:07:50;23.07;;;15.80;;
11344;SDS011;5727;42.600;23.028;2022-11-13T03:10:17;20.70;;;13.80;;
11344;SDS011;5727;42.600;23.028;2022-11-13T03:12:44;19.97;;;13.87;;
11344;SDS011;5727;42.600;23.028;2022-11-13T03:15:11;22.77;;;13.87;;
11344;SDS011;5727;42.600;23.028;2022-11-13T03:17:39;20.13;;;15.07;;
11344;SDS011;5727;42.600;23.028;2022-11-13T03:20:06;22.87;;;13.87;;
11344;SDS011;5727;42.600;23.028;2022-11-13T03:22:33;22.53;;;14.17;;
11344;SDS011;5727;42.600;23.028;2022-11-13T03:24:59;25.17;;;14.50;;
11344;SDS011;5727;42.600;23.028;2022-11-13T03:27:26;25.30;;;14.50;;
11344;SDS011;5727;42.600;23.028;2022-11-13T03:29:55;26.77;;;15.27;;
11344;SDS011;5727;42.600;23.028;2022-11-13T03:32:21;35.80;;;17.57;;
11344;SDS011;5727;42.600;23.028;2022-11-13T03:34:49;23.73;;;14.27;;
11344;SDS011;5727;42.600;23.028;2022-11-13T03:37:16;25.63;;;14.23;;
11344;SDS011;5727;42.600;23.028;2022-11-13T03:39:43;21.37;;;14.23;;
11344;SDS011;5727;42.600;23.028;2022-11-13T03:42:10;22.67;;;14.37;;
11344;SDS011;5727;42.600;23.028;2022-11-13T03:44:36;22.63;;;15.57;;
11344;SDS011;5727;42.600;23.028;2022-11-13T03:47:03;21.77;;;16.00;;
11344;SDS011;5727;42.600;23.028;2022-11-13T03:49:30;29.47;;;15.53;;
11344;SDS011;5727;42.600;23.028;2022-11-13T03:51:58;23.57;;;16.00;;
11344;SDS011;5727;42.600;23.028;2022-11-13T03:54:24;23.97;;;16.30;;
11344;SDS011;5727;42.600;23.028;2022-11-13T03:56:51;27.67;;;16.20;;
11344;SDS011;5727;42.600;23.028;2022-11-13T03:59:18;27.73;;;16.90;;
11344;SDS011;5727;42.600;23.028;2022-11-13T04:01:44;31.07;;;16.93;;
11344;SDS011;5727;42.600;23.028;2022-11-13T04:04:11;35.03;;;16.63;;
11344;SDS011;5727;42.600;23.028;2022-11-13T04:06:38;24.87;;;16.80;;
11344;SDS011;5727;42.600;23.028;2022-11-13T04:09:07;27.67;;;16.30;;
11344;SDS011;5727;42.600;23.028;2022-11-13T04:11:35;27.70;;;16.53;;
11344;SDS011;5727;42.600;23.028;2022-11-13T04:14:01;32.87;;;17.63;;
11344;SDS011;5727;42.600;23.028;2022-11-13T04:16:28;27.50;;;16.33;;
11344;SDS011;5727;42.600;23.028;2022-11-13T04:18:55;30.20;;;17.33;;
11344;SDS011;5727;42.600;23.028;2022-11-13T04:21:21;30.57;;;17.67;;
11344;SDS011;5727;42.600;23.028;2022-11-13T04:23:48;31.10;;;17.40;;
11344;SDS011;5727;42.600;23.028;2022-11-13T04:26:16;31.73;;;17.07;;
11344;SDS011;5727;42.600;23.028;2022-11-13T04:28:43;27.13;;;15.73;;
11344;SDS011;5727;42.600;23.028;2022-11-13T04:31:10;28.13;;;16.10;;
11344;SDS011;5727;42.600;23.028;2022-11-13T04:33:36;24.07;;;16.07;;
11344;SDS011;5727;42.600;23.028;2022-11-13T04:36:03;26.80;;;15.97;;
11344;SDS011;5727;42.600;23.028;2022-11-13T04:38:30;27.57;;;15.73;;
11344;SDS011;5727;42.600;23.028;2022-11-13T04:40:57;27.37;;;16.30;;
11344;SDS011;5727;42.600;23.028;2022-11-13T04:43:39;22.67;;;14.57;;
11344;SDS011;5727;42.600;23.028;2022-11-13T04:46:06;27.23;;;15.50;;
11344;SDS011;5727;42.600;23.028;2022-11-13T04:48:33;27.80;;;15.13;;
11344;SDS011;5727;42.600;23.028;2022-11-13T04:50:59;25.33;;;15.23;;
11344;SDS011;5727;42.600;23.028;2022-11-13T04:53:26;24.90;;;14.50;;
11344;SDS011;5727;42.600;23.028;2022-11-13T04:55:53;22.77;;;15.20;;
11344;SDS011;5727;42.600;23.028;2022-11-13T04:58:20;25.07;;;14.97;;
11344;SDS011;5727;42.600;23.028;2022-11-13T05:00:48;22.30;;;13.73;;
11344;SDS011;5727;42.600;23.028;2022-11-13T05:03:14;26.90;;;14.87;;
11344;SDS011;5727;42.600;23.028;2022-11-13T05:05:41;22.37;;;14.43;;
11344;SDS011;5727;42.600;23.028;2022-11-13T05:08:08;30.97;;;14.67;;
11344;SDS011;5727;42.600;23.028;2022-11-13T05:10:35;23.73;;;14.80;;
11344;SDS011;5727;42.600;23.028;2022-11-13T05:13:02;30.10;;;15.80;;
11344;SDS011;5727;42.600;23.028;2022-11-13T05:15:28;24.27;;;13.93;;
11344;SDS011;5727;42.600;23.028;2022-11-13T05:17:56;23.13;;;14.67;;
11344;SDS011;5727;42.600;23.028;2022-11-13T05:20:23;24.83;;;14.90;;
11344;SDS011;5727;42.600;23.028;2022-11-13T05:22:50;23.87;;;14.40;;
11344;SDS011;5727;42.600;23.028;2022-11-13T05:25:16;28.00;;;15.57;;
11344;SDS011;5727;42.600;23.028;2022-11-13T05:27:43;29.57;;;16.80;;
11344;SDS011;5727;42.600;23.028;2022-11-13T05:30:10;25.83;;;15.70;;
11344;SDS011;5727;42.600;23.028;2022-11-13T05:32:37;28.17;;;15.23;;
11344;SDS011;5727;42.600;23.028;2022-11-13T05:35:05;28.93;;;16.27;;
11344;SDS011;5727;42.600;23.028;2022-11-13T05:37:32;32.77;;;16.90;;
11344;SDS011;5727;42.600;23.028;2022-11-13T05:39:59;29.00;;;17.03;;
11344;SDS011;5727;42.600;23.028;2022-11-13T05:42:26;26.27;;;16.37;;
11344;SDS011;5727;42.600;23.028;2022-11-13T05:44:52;28.20;;;16.47;;
11344;SDS011;5727;42.600;23.028;2022-11-13T05:47:19;29.93;;;16.67;;
11344;SDS011;5727;42.600;23.028;2022-11-13T05:49:46;36.83;;;18.47;;
11344;SDS011;5727;42.600;23.028;2022-11-13T05:52:14;29.97;;;17.37;;
11344;SDS011;5727;42.600;23.028;2022-11-13T05:54:41;37.87;;;18.30;;
11344;SDS011;5727;42.600;23.028;2022-11-13T05:57:07;37.40;;;19.90;;
11344;SDS011;5727;42.600;23.028;2022-11-13T05:59:34;37.90;;;19.37;;
11344;SDS011;5727;42.600;23.028;2022-11-13T06:02:01;38.77;;;20.20;;
11344;SDS011;5727;42.600;23.028;2022-11-13T06:04:27;42.67;;;20.03;;
11344;SDS011;5727;42.600;23.028;2022-11-13T06:06:54;36.13;;;20.90;;
11344;SDS011;5727;42.600;23.028;2022-11-13T06:09:22;43.27;;;21.03;;
11344;SDS011;5727;42.600;23.028;2022-11-13T06:11:49;42.27;;;19.10;;
11344;SDS011;5727;42.600;23.028;2022-11-13T06:14:15;43.73;;;21.57;;
11344;SDS011;5727;42.600;23.028;2022-11-13T06:16:42;51.20;;;22.80;;
11344;SDS011;5727;42.600;23.028;2022-11-13T06:19:09;50.03;;;24.90;;
11344;SDS011;5727;42.600;23.028;2022-11-13T06:21:36;43.70;;;23.07;;
11344;SDS011;5727;42.600;23.028;2022-11-13T06:24:04;52.07;;;23.57;;
11344;SDS011;5727;42.600;23.028;2022-11-13T06:26:34;55.30;;;24.80;;
11344;SDS011;5727;42.600;23.028;2022-11-13T06:29:02;54.97;;;26.67;;
11344;SDS011;5727;42.600;23.028;2022-11-13T06:31:32;74.50;;;35.60;;
11344;SDS011;5727;42.600;23.028;2022-11-13T06:34:00;71.13;;;35.00;;
11344;SDS011;5727;42.600;23.028;2022-11-13T06:36:28;59.87;;;26.80;;
11344;SDS011;5727;42.600;23.028;2022-11-13T06:38:56;58.47;;;26.03;;
11344;SDS011;5727;42.600;23.028;2022-11-13T06:41:24;59.47;;;26.70;;
11344;SDS011;5727;42.600;23.028;2022-11-13T06:43:55;58.97;;;26.57;;
11344;SDS011;5727;42.600;23.028;2022-11-13T06:46:23;60.33;;;27.80;;
11344;SDS011;5727;42.600;23.028;2022-11-13T06:48:52;64.80;;;29.80;;
11344;SDS011;5727;42.600;23.028;2022-11-13T06:51:19;59.93;;;30.67;;
11344;SDS011;5727;42.600;23.028;2022-11-13T06:53:48;62.63;;;28.90;;
11344;SDS011;5727;42.600;23.028;2022-11-13T06:56:15;58.90;;;28.37;;
11344;SDS011;5727;42.600;23.028;2022-11-13T06:58:42;50.53;;;26.10;;
11344;SDS011;5727;42.600;23.028;2022-11-13T07:01:11;50.43;;;26.93;;
11344;SDS011;5727;42.600;23.028;2022-11-13T07:03:39;62.57;;;28.03;;
11344;SDS011;5727;42.600;23.028;2022-11-13T07:06:08;58.57;;;28.97;;
11344;SDS011;5727;42.600;23.028;2022-11-13T07:08:38;57.70;;;29.20;;
11344;SDS011;5727;42.600;23.028;2022-11-13T07:11:04;55.57;;;28.90;;
11344;SDS011;5727;42.600;23.028;2022-11-13T07:13:32;55.80;;;29.03;;
11344;SDS011;5727;42.600;23.028;2022-11-13T07:16:00;60.63;;;28.90;;
11344;SDS011;5727;42.600;23.028;2022-11-13T07:18:29;57.60;;;28.73;;
11344;SDS011;5727;42.600;23.028;2022-11-13T07:20:56;59.83;;;27.97;;
11344;SDS011;5727;42.600;23.028;2022-11-13T07:23:23;54.20;;;28.93;;
11344;SDS011;5727;42.600;23.028;2022-11-13T07:25:51;70.87;;;29.37;;
11344;SDS011;5727;42.600;23.028;2022-11-13T07:28:18;69.97;;;35.43;;
11344;SDS011;5727;42.600;23.028;2022-11-13T07:30:45;70.67;;;35.53;;
11344;SDS011;5727;42.600;23.028;2022-11-13T07:33:12;61.00;;;34.07;;
11344;SDS011;5727;42.600;23.028;2022-11-13T07:35:40;69.07;;;35.00;;
11344;SDS011;5727;42.600;23.028;2022-11-13T07:38:07;78.83;;;36.23;;
11344;SDS011;5727;42.600;23.028;2022-11-13T07:40:34;76.97;;;34.97;;
11344;SDS011;5727;42.600;23.028;2022-11-13T07:43:01;64.37;;;32.70;;
11344;SDS011;5727;42.600;23.028;2022-11-13T07:45:28;55.60;;;28.90;;
11344;SDS011;5727;42.600;23.028;2022-11-13T07:47:58;59.77;;;30.30;;
11344;SDS011;5727;42.600;23.028;2022-11-13T07:50:25;61.20;;;30.07;;
11344;SDS011;5727;42.600;23.028;2022-11-13T07:52:58;65.23;;;32.20;;
11344;SDS011;5727;42.600;23.028;2022-11-13T07:55:26;67.23;;;31.30;;
11344;SDS011;5727;42.600;23.028;2022-11-13T07:57:54;72.80;;;32.33;;
11344;SDS011;5727;42.600;23.028;2022-11-13T08:00:22;81.73;;;31.13;;
11344;SDS011;5727;42.600;23.028;2022-11-13T08:02:48;72.23;;;29.67;;
11344;SDS011;5727;42.600;23.028;2022-11-13T08:05:15;71.93;;;30.50;;
11344;SDS011;5727;42.600;23.028;2022-11-13T08:07:45;67.20;;;29.33;;
11344;SDS011;5727;42.600;23.028;2022-11-13T08:10:13;63.93;;;27.77;;
11344;SDS011;5727;42.600;23.028;2022-11-13T08:12:40;55.57;;;26.10;;
11344;SDS011;5727;42.600;23.028;2022-11-13T08:15:08;49.97;;;23.90;;
11344;SDS011;5727;42.600;23.028;2022-11-13T08:17:35;50.37;;;23.80;;
11344;SDS011;5727;42.600;23.028;2022-11-13T08:20:02;53.37;;;23.13;;
11344;SDS011;5727;42.600;23.028;2022-11-13T08:22:29;43.40;;;21.87;;
11344;SDS011;5727;42.600;23.028;2022-11-13T08:24:56;44.03;;;22.17;;
11344;SDS011;5727;42.600;23.028;2022-11-13T08:27:24;46.10;;;21.40;;
11344;SDS011;5727;42.600;23.028;2022-11-13T08:29:51;45.83;;;22.10;;
11344;SDS011;5727;42.600;23.028;2022-11-13T08:32:18;39.87;;;21.30;;
11344;SDS011;5727;42.600;23.028;2022-11-13T08:34:46;45.40;;;22.33;;
11344;SDS011;5727;42.600;23.028;2022-11-13T08:37:13;53.73;;;23.40;;
11344;SDS011;5727;42.600;23.028;2022-11-13T08:39:40;49.60;;;21.97;;
11344;SDS011;5727;42.600;23.028;2022-11-13T08:42:06;43.23;;;21.43;;
11344;SDS011;5727;42.600;23.028;2022-11-13T08:44:35;40.40;;;19.00;;
11344;SDS011;5727;42.600;23.028;2022-11-13T08:47:01;28.53;;;16.20;;
11344;SDS011;5727;42.600;23.028;2022-11-13T08:49:28;40.87;;;18.10;;
11344;SDS011;5727;42.600;23.028;2022-11-13T08:51:55;32.37;;;18.47;;
11344;SDS011;5727;42.600;23.028;2022-11-13T08:54:22;32.67;;;16.97;;
11344;SDS011;5727;42.600;23.028;2022-11-13T08:56:49;28.47;;;16.00;;
11344;SDS011;5727;42.600;23.028;2022-11-13T08:59:16;26.83;;;14.30;;
11344;SDS011;5727;42.600;23.028;2022-11-13T09:01:44;21.40;;;12.97;;
11344;SDS011;5727;42.600;23.028;2022-11-13T09:04:10;21.00;;;13.67;;
11344;SDS011;5727;42.600;23.028;2022-11-13T09:06:37;19.97;;;13.80;;
11344;SDS011;5727;42.600;23.028;2022-11-13T09:09:04;25.37;;;14.47;;
11344;SDS011;5727;42.600;23.028;2022-11-13T09:11:31;22.83;;;14.60;;
11344;SDS011;5727;42.600;23.028;2022-11-13T09:13:58;31.57;;;17.30;;
11344;SDS011;5727;42.600;23.028;2022-11-13T09:16:25;30.93;;;18.07;;
11344;SDS011;5727;42.600;23.028;2022-11-13T09:18:53;35.77;;;19.10;;
11344;SDS011;5727;42.600;23.028;2022-11-13T09:21:20;26.20;;;17.00;;
11344;SDS011;5727;42.600;23.028;2022-11-13T09:23:47;25.67;;;17.03;;
11344;SDS011;5727;42.600;23.028;2022-11-13T09:26:14;27.53;;;16.17;;
11344;SDS011;5727;42.600;23.028;2022-11-13T09:28:41;25.03;;;14.87;;
11344;SDS011;5727;42.600;23.028;2022-11-13T09:31:08;27.60;;;16.33;;
11344;SDS011;5727;42.600;23.028;2022-11-13T09:33:35;28.13;;;16.70;;
11344;SDS011;5727;42.600;23.028;2022-11-13T09:36:03;25.53;;;15.77;;
11344;SDS011;5727;42.600;23.028;2022-11-13T09:38:35;20.73;;;13.70;;
11344;SDS011;5727;42.600;23.028;2022-11-13T09:41:02;15.47;;;10.83;;
11344;SDS011;5727;42.600;23.028;2022-11-13T09:43:35;19.50;;;12.30;;
11344;SDS011;5727;42.600;23.028;2022-11-13T09:46:07;19.77;;;14.00;;
11344;SDS011;5727;42.600;23.028;2022-11-13T09:48:45;21.03;;;12.47;;
11344;SDS011;5727;42.600;23.028;2022-11-13T09:51:20;14.97;;;11.00;;
11344;SDS011;5727;42.600;23.028;2022-11-13T09:53:49;17.17;;;11.23;;
11344;SDS011;5727;42.600;23.028;2022-11-13T09:56:23;15.83;;;11.13;;
11344;SDS011;5727;42.600;23.028;2022-11-13T09:58:55;16.33;;;12.07;;
11344;SDS011;5727;42.600;23.028;2022-11-13T10:01:30;14.13;;;10.63;;
11344;SDS011;5727;42.600;23.028;2022-11-13T10:04:06;16.17;;;11.17;;
11344;SDS011;5727;42.600;23.028;2022-11-13T10:06:41;15.17;;;11.07;;
11344;SDS011;5727;42.600;23.028;2022-11-13T10:09:19;14.53;;;11.67;;
11344;SDS011;5727;42.600;23.028;2022-11-13T10:11:52;13.57;;;11.13;;
11344;SDS011;5727;42.600;23.028;2022-11-13T10:14:22;14.17;;;11.37;;
11344;SDS011;5727;42.600;23.028;2022-11-13T10:16:53;17.17;;;11.53;;
11344;SDS011;5727;42.600;23.028;2022-11-13T10:19:24;14.83;;;11.60;;
11344;SDS011;5727;42.600;23.028;2022-11-13T10:21:59;15.93;;;11.63;;
11344;SDS011;5727;42.600;23.028;2022-11-13T10:24:32;16.93;;;12.37;;
11344;SDS011;5727;42.600;23.028;2022-11-13T10:27:04;17.03;;;11.53;;
11344;SDS011;5727;42.600;23.028;2022-11-13T10:29:34;16.17;;;11.07;;
11344;SDS011;5727;42.600;23.028;2022-11-13T10:32:12;14.90;;;10.97;;
11344;SDS011;5727;42.600;23.028;2022-11-13T10:34:42;16.47;;;11.30;;
11344;SDS011;5727;42.600;23.028;2022-11-13T10:37:19;16.50;;;11.67;;
11344;SDS011;5727;42.600;23.028;2022-11-13T10:39:53;17.53;;;12.30;;
11344;SDS011;5727;42.600;23.028;2022-11-13T10:42:21;18.30;;;11.20;;
11344;SDS011;5727;42.600;23.028;2022-11-13T10:44:53;18.60;;;11.40;;
11344;SDS011;5727;42.600;23.028;2022-11-13T10:47:22;15.70;;;11.43;;
11344;SDS011;5727;42.600;23.028;2022-11-13T10:49:50;15.87;;;12.20;;
11344;SDS011;5727;42.600;23.028;2022-11-13T10:52:20;19.30;;;12.23;;
11344;SDS011;5727;42.600;23.028;2022-11-13T10:54:48;14.37;;;10.93;;
11344;SDS011;5727;42.600;23.028;2022-11-13T10:57:21;14.77;;;11.50;;
11344;SDS011;5727;42.600;23.028;2022-11-13T10:59:52;14.83;;;11.60;;
11344;SDS011;5727;42.600;23.028;2022-11-13T11:02:21;13.80;;;11.30;;
11344;SDS011;5727;42.600;23.028;2022-11-13T11:04:59;18.47;;;12.10;;
11344;SDS011;5727;42.600;23.028;2022-11-13T11:07:28;16.20;;;11.77;;
11344;SDS011;5727;42.600;23.028;2022-11-13T11:09:59;15.13;;;11.57;;
11344;SDS011;5727;42.600;23.028;2022-11-13T11:12:26;17.63;;;12.17;;
11344;SDS011;5727;42.600;23.028;2022-11-13T11:14:56;18.50;;;13.20;;
11344;SDS011;5727;42.600;23.028;2022-11-13T11:17:31;18.40;;;11.30;;
11344;SDS011;5727;42.600;23.028;2022-11-13T11:20:04;18.27;;;11.40;;
11344;SDS011;5727;42.600;23.028;2022-11-13T11:22:35;15.63;;;11.53;;
11344;SDS011;5727;42.600;23.028;2022-11-13T11:25:05;14.53;;;10.77;;
11344;SDS011;5727;42.600;23.028;2022-11-13T11:27:38;13.87;;;11.67;;
11344;SDS011;5727;42.600;23.028;2022-11-13T11:30:14;15.83;;;10.87;;
11344;SDS011;5727;42.600;23.028;2022-11-13T11:32:46;16.40;;;11.80;;
11344;SDS011;5727;42.600;23.028;2022-11-13T11:35:19;14.67;;;10.90;;
11344;SDS011;5727;42.600;23.028;2022-11-13T11:37:50;15.40;;;11.00;;
11344;SDS011;5727;42.600;23.028;2022-11-13T11:40:25;13.30;;;9.90;;
11344;SDS011;5727;42.600;23.028;2022-11-13T11:42:59;15.00;;;9.67;;
11344;SDS011;5727;42.600;23.028;2022-11-13T11:45:33;13.97;;;10.40;;
11344;SDS011;5727;42.600;23.028;2022-11-13T11:48:02;14.57;;;10.70;;
11344;SDS011;5727;42.600;23.028;2022-11-13T11:50:35;15.33;;;11.00;;
11344;SDS011;5727;42.600;23.028;2022-11-13T11:53:10;13.57;;;10.40;;
11344;SDS011;5727;42.600;23.028;2022-11-13T11:55:42;11.67;;;10.30;;
11344;SDS011;5727;42.600;23.028;2022-11-13T11:58:27;14.50;;;10.83;;
11344;SDS011;5727;42.600;23.028;2022-11-13T12:01:12;13.50;;;10.17;;
11344;SDS011;5727;42.600;23.028;2022-11-13T12:03:52;12.23;;;10.13;;
11344;SDS011;5727;42.600;23.028;2022-11-13T12:06:35;15.27;;;10.97;;
11344;SDS011;5727;42.600;23.028;2022-11-13T12:09:17;14.80;;;10.50;;
11344;SDS011;5727;42.600;23.028;2022-11-13T12:11:55;12.53;;;10.33;;
11344;SDS011;5727;42.600;23.028;2022-11-13T12:14:33;16.43;;;11.73;;
11344;SDS011;5727;42.600;23.028;2022-11-13T12:17:14;14.67;;;10.60;;
11344;SDS011;5727;42.600;23.028;2022-11-13T12:19:53;14.23;;;10.87;;
11344;SDS011;5727;42.600;23.028;2022-11-13T12:22:34;12.77;;;9.73;;
11344;SDS011;5727;42.600;23.028;2022-11-13T12:25:14;14.03;;;10.07;;
11344;SDS011;5727;42.600;23.028;2022-11-13T12:27:49;14.03;;;9.10;;
11344;SDS011;5727;42.600;23.028;2022-11-13T12:30:23;12.23;;;9.50;;
11344;SDS011;5727;42.600;23.028;2022-11-13T12:33:02;12.73;;;9.47;;
11344;SDS011;5727;42.600;23.028;2022-11-13T12:35:36;13.00;;;10.13;;
11344;SDS011;5727;42.600;23.028;2022-11-13T12:38:10;10.83;;;8.53;;
11344;SDS011;5727;42.600;23.028;2022-11-13T12:40:47;10.13;;;8.60;;
11344;SDS011;5727;42.600;23.028;2022-11-13T12:43:27;9.73;;;7.90;;
11344;SDS011;5727;42.600;23.028;2022-11-13T12:45:59;11.67;;;8.50;;
11344;SDS011;5727;42.600;23.028;2022-11-13T12:48:32;13.70;;;9.53;;
11344;SDS011;5727;42.600;23.028;2022-11-13T12:51:01;11.60;;;9.13;;
11344;SDS011;5727;42.600;23.028;2022-11-13T12:53:29;12.10;;;9.40;;
11344;SDS011;5727;42.600;23.028;2022-11-13T12:56:12;11.67;;;8.10;;
11344;SDS011;5727;42.600;23.028;2022-11-13T12:58:50;13.03;;;9.37;;
11344;SDS011;5727;42.600;23.028;2022-11-13T13:01:19;11.50;;;9.70;;
11344;SDS011;5727;42.600;23.028;2022-11-13T13:04:12;12.27;;;9.87;;
11344;SDS011;5727;42.600;23.028;2022-11-13T13:06:57;13.97;;;10.03;;
11344;SDS011;5727;42.600;23.028;2022-11-13T13:09:36;13.20;;;10.40;;
11344;SDS011;5727;42.600;23.028;2022-11-13T13:12:22;13.43;;;11.27;;
11344;SDS011;5727;42.600;23.028;2022-11-13T13:15:10;14.83;;;11.13;;
11344;SDS011;5727;42.600;23.028;2022-11-13T13:18:00;13.77;;;10.93;;
11344;SDS011;5727;42.600;23.028;2022-11-13T13:20:29;16.13;;;12.13;;
11344;SDS011;5727;42.600;23.028;2022-11-13T13:22:59;17.73;;;11.07;;
11344;SDS011;5727;42.600;23.028;2022-11-13T13:25:27;12.70;;;10.20;;
11344;SDS011;5727;42.600;23.028;2022-11-13T13:27:58;13.53;;;10.17;;
11344;SDS011;5727;42.600;23.028;2022-11-13T13:30:26;10.80;;;8.87;;
11344;SDS011;5727;42.600;23.028;2022-11-13T13:33:02;13.43;;;9.77;;
11344;SDS011;5727;42.600;23.028;2022-11-13T13:35:43;18.00;;;10.93;;
11344;SDS011;5727;42.600;23.028;2022-11-13T13:38:16;14.70;;;10.83;;
11344;SDS011;5727;42.600;23.028;2022-11-13T13:40:58;14.50;;;10.80;;
11344;SDS011;5727;42.600;23.028;2022-11-13T13:43:41;16.30;;;11.00;;
11344;SDS011;5727;42.600;23.028;2022-11-13T13:46:18;15.20;;;9.83;;
11344;SDS011;5727;42.600;23.028;2022-11-13T13:48:49;15.67;;;12.97;;
11344;SDS011;5727;42.600;23.028;2022-11-13T13:51:21;15.27;;;12.53;;
11344;SDS011;5727;42.600;23.028;2022-11-13T13:53:51;22.23;;;14.70;;
11344;SDS011;5727;42.600;23.028;2022-11-13T13:59:12;20.17;;;14.90;;
11344;SDS011;5727;42.600;23.028;2022-11-13T14:01:51;17.67;;;14.13;;
11344;SDS011;5727;42.600;23.028;2022-11-13T14:04:20;16.83;;;13.07;;
11344;SDS011;5727;42.600;23.028;2022-11-13T14:06:48;22.10;;;15.63;;
11344;SDS011;5727;42.600;23.028;2022-11-13T14:09:17;17.43;;;14.70;;
11344;SDS011;5727;42.600;23.028;2022-11-13T14:11:45;20.47;;;15.33;;
11344;SDS011;5727;42.600;23.028;2022-11-13T14:14:17;23.07;;;16.70;;
11344;SDS011;5727;42.600;23.028;2022-11-13T14:16:46;24.33;;;18.50;;
11344;SDS011;5727;42.600;23.028;2022-11-13T14:19:14;24.77;;;19.27;;
11344;SDS011;5727;42.600;23.028;2022-11-13T14:21:41;26.13;;;20.43;;
11344;SDS011;5727;42.600;23.028;2022-11-13T14:24:12;26.70;;;19.63;;
11344;SDS011;5727;42.600;23.028;2022-11-13T14:26:42;24.60;;;18.80;;
11344;SDS011;5727;42.600;23.028;2022-11-13T14:29:14;23.93;;;18.57;;
11344;SDS011;5727;42.600;23.028;2022-11-13T14:31:48;24.07;;;18.77;;
11344;SDS011;5727;42.600;23.028;2022-11-13T14:34:17;23.00;;;17.83;;
11344;SDS011;5727;42.600;23.028;2022-11-13T14:36:46;29.20;;;19.17;;
11344;SDS011;5727;42.600;23.028;2022-11-13T14:39:16;26.77;;;20.10;;